sensor_id;sensor_type;location;lat;lon;timestamp;P1;durP1;ratioP1;P2;durP2;ratioP2
21901;SDS011;11115;46.038;14.612;2023-04-29T00:00:05;0.50;;;0.50;;
21901;SDS011;11115;46.038;14.612;2023-04-29T00:02:39;0.73;;;0.70;;
21901;SDS011;11115;46.038;14.612;2023-04-29T00:05:10;0.63;;;0.57;;
21901;SDS011;11115;46.038;14.612;2023-04-29T00:07:44;1.27;;;0.77;;
21901;SDS011;11115;46.038;14.612;2023-04-29T00:10:22;0.63;;;0.63;;
21901;SDS011;11115;46.038;14.612;2023-04-29T00:13:08;0.73;;;0.50;;
21901;SDS011;11115;46.038;14.612;2023-04-29T00:15:39;0.52;;;0.52;;
21901;SDS011;11115;46.038;14.612;2023-04-29T00:18:11;1.02;;;0.57;;
21901;SDS011;11115;46.038;14.612;2023-04-29T00:20:44;0.93;;;0.53;;
21901;SDS011;11115;46.038;14.612;2023-04-29T00:23:21;1.50;;;0.70;;
21901;SDS011;11115;46.038;14.612;2023-04-29T00:25:48;0.50;;;0.50;;
21901;SDS011;11115;46.038;14.612;2023-04-29T00:28:22;0.90;;;0.47;;
21901;SDS011;11115;46.038;14.612;2023-04-29T00:33:22;1.07;;;0.70;;
21901;SDS011;11115;46.038;14.612;2023-04-29T00:35:55;0.53;;;0.43;;
21901;SDS011;11115;46.038;14.612;2023-04-29T00:38:24;1.53;;;0.50;;
21901;SDS011;11115;46.038;14.612;2023-04-29T00:40:55;0.87;;;0.87;;
21901;SDS011;11115;46.038;14.612;2023-04-29T00:43:30;2.17;;;1.10;;
21901;SDS011;11115;46.038;14.612;2023-04-29T00:46:06;0.80;;;0.60;;
21901;SDS011;11115;46.038;14.612;2023-04-29T00:48:42;4.10;;;1.10;;
21901;SDS011;11115;46.038;14.612;2023-04-29T00:51:20;1.17;;;0.70;;
21901;SDS011;11115;46.038;14.612;2023-04-29T00:53:49;0.50;;;0.50;;
21901;SDS011;11115;46.038;14.612;2023-04-29T00:56:25;0.70;;;0.53;;
21901;SDS011;11115;46.038;14.612;2023-04-29T00:59:07;3.30;;;1.50;;
21901;SDS011;11115;46.038;14.612;2023-04-29T01:01:42;2.70;;;0.97;;
21901;SDS011;11115;46.038;14.612;2023-04-29T01:04:17;1.27;;;1.17;;
21901;SDS011;11115;46.038;14.612;2023-04-29T01:09:54;2.23;;;1.03;;
21901;SDS011;11115;46.038;14.612;2023-04-29T01:12:50;1.27;;;1.00;;
21901;SDS011;11115;46.038;14.612;2023-04-29T01:16:22;1.43;;;0.90;;
21901;SDS011;11115;46.038;14.612;2023-04-29T01:18:38;1.83;;;0.83;;
21901;SDS011;11115;46.038;14.612;2023-04-29T01:21:18;1.63;;;1.20;;
21901;SDS011;11115;46.038;14.612;2023-04-29T01:24:03;1.27;;;0.77;;
21901;SDS011;11115;46.038;14.612;2023-04-29T01:26:48;2.10;;;0.60;;
21901;SDS011;11115;46.038;14.612;2023-04-29T01:32:42;0.60;;;0.60;;
21901;SDS011;11115;46.038;14.612;2023-04-29T01:44:17;2.20;;;1.10;;
21901;SDS011;11115;46.038;14.612;2023-04-29T01:46:51;3.07;;;0.90;;
21901;SDS011;11115;46.038;14.612;2023-04-29T01:49:29;2.23;;;1.00;;
21901;SDS011;11115;46.038;14.612;2023-04-29T01:52:19;3.27;;;1.10;;
21901;SDS011;11115;46.038;14.612;2023-04-29T01:55:03;2.03;;;1.13;;
21901;SDS011;11115;46.038;14.612;2023-04-29T01:58:01;3.90;;;1.83;;
21901;SDS011;11115;46.038;14.612;2023-04-29T02:01:07;3.47;;;2.27;;
21901;SDS011;11115;46.038;14.612;2023-04-29T02:03:52;2.30;;;1.50;;
21901;SDS011;11115;46.038;14.612;2023-04-29T02:06:25;7.87;;;2.37;;
21901;SDS011;11115;46.038;14.612;2023-04-29T02:09:03;7.53;;;2.27;;
21901;SDS011;11115;46.038;14.612;2023-04-29T02:11:36;3.45;;;1.92;;
21901;SDS011;11115;46.038;14.612;2023-04-29T02:14:09;2.80;;;1.80;;
21901;SDS011;11115;46.038;14.612;2023-04-29T02:16:53;2.80;;;1.80;;
21901;SDS011;11115;46.038;14.612;2023-04-29T02:19:21;3.23;;;1.73;;
21901;SDS011;11115;46.038;14.612;2023-04-29T02:21:54;1.67;;;1.50;;
21901;SDS011;11115;46.038;14.612;2023-04-29T02:24:40;1.30;;;0.93;;
21901;SDS011;11115;46.038;14.612;2023-04-29T02:27:19;2.40;;;1.10;;
21901;SDS011;11115;46.038;14.612;2023-04-29T02:30:02;1.63;;;1.50;;
21901;SDS011;11115;46.038;14.612;2023-04-29T02:32:35;3.40;;;1.20;;
21901;SDS011;11115;46.038;14.612;2023-04-29T02:35:05;1.70;;;1.10;;
21901;SDS011;11115;46.038;14.612;2023-04-29T02:37:43;3.67;;;1.40;;
21901;SDS011;11115;46.038;14.612;2023-04-29T02:40:13;1.07;;;0.97;;
21901;SDS011;11115;46.038;14.612;2023-04-29T02:42:57;4.93;;;1.33;;
21901;SDS011;11115;46.038;14.612;2023-04-29T02:45:43;4.07;;;1.83;;
21901;SDS011;11115;46.038;14.612;2023-04-29T02:48:12;3.80;;;1.57;;
21901;SDS011;11115;46.038;14.612;2023-04-29T02:50:46;2.65;;;1.70;;
21901;SDS011;11115;46.038;14.612;2023-04-29T02:53:28;5.37;;;1.80;;
21901;SDS011;11115;46.038;14.612;2023-04-29T02:56:12;2.40;;;1.73;;
21901;SDS011;11115;46.038;14.612;2023-04-29T03:01:34;1.53;;;1.13;;
21901;SDS011;11115;46.038;14.612;2023-04-29T03:04:12;2.40;;;1.60;;
21901;SDS011;11115;46.038;14.612;2023-04-29T03:06:49;1.57;;;1.17;;
21901;SDS011;11115;46.038;14.612;2023-04-29T03:09:21;5.93;;;1.50;;
21901;SDS011;11115;46.038;14.612;2023-04-29T03:12:04;4.03;;;2.07;;
21901;SDS011;11115;46.038;14.612;2023-04-29T03:14:34;2.93;;;1.67;;
21901;SDS011;11115;46.038;14.612;2023-04-29T03:17:05;2.87;;;1.67;;
21901;SDS011;11115;46.038;14.612;2023-04-29T03:19:40;3.03;;;1.57;;
21901;SDS011;11115;46.038;14.612;2023-04-29T03:22:17;3.27;;;1.77;;
21901;SDS011;11115;46.038;14.612;2023-04-29T03:25:06;2.97;;;1.43;;
21901;SDS011;11115;46.038;14.612;2023-04-29T03:27:37;2.53;;;1.37;;
21901;SDS011;11115;46.038;14.612;2023-04-29T03:30:06;1.43;;;1.33;;
21901;SDS011;11115;46.038;14.612;2023-04-29T03:32:47;2.88;;;2.10;;
21901;SDS011;11115;46.038;14.612;2023-04-29T03:35:20;4.18;;;1.33;;
21901;SDS011;11115;46.038;14.612;2023-04-29T03:38:12;1.52;;;1.42;;
21901;SDS011;11115;46.038;14.612;2023-04-29T03:40:55;1.63;;;1.40;;
21901;SDS011;11115;46.038;14.612;2023-04-29T03:43:32;3.27;;;1.53;;
21901;SDS011;11115;46.038;14.612;2023-04-29T03:46:03;1.48;;;1.27;;
21901;SDS011;11115;46.038;14.612;2023-04-29T03:48:45;3.57;;;1.47;;
21901;SDS011;11115;46.038;14.612;2023-04-29T03:51:17;4.27;;;1.43;;
21901;SDS011;11115;46.038;14.612;2023-04-29T03:53:50;2.27;;;1.53;;
21901;SDS011;11115;46.038;14.612;2023-04-29T03:56:21;6.03;;;2.00;;
21901;SDS011;11115;46.038;14.612;2023-04-29T03:58:53;1.97;;;1.73;;
21901;SDS011;11115;46.038;14.612;2023-04-29T04:01:39;1.30;;;1.20;;
21901;SDS011;11115;46.038;14.612;2023-04-29T04:04:10;2.60;;;1.33;;
21901;SDS011;11115;46.038;14.612;2023-04-29T04:06:45;2.33;;;1.20;;
21901;SDS011;11115;46.038;14.612;2023-04-29T04:09:21;1.60;;;1.47;;
21901;SDS011;11115;46.038;14.612;2023-04-29T04:11:49;4.20;;;2.67;;
21901;SDS011;11115;46.038;14.612;2023-04-29T04:14:20;2.92;;;1.45;;
21901;SDS011;11115;46.038;14.612;2023-04-29T04:16:50;1.63;;;1.17;;
21901;SDS011;11115;46.038;14.612;2023-04-29T04:19:21;1.30;;;0.97;;
21901;SDS011;11115;46.038;14.612;2023-04-29T04:21:48;2.43;;;1.40;;
21901;SDS011;11115;46.038;14.612;2023-04-29T04:24:22;1.23;;;1.10;;
21901;SDS011;11115;46.038;14.612;2023-04-29T04:26:53;1.80;;;1.50;;
21901;SDS011;11115;46.038;14.612;2023-04-29T04:29:43;7.03;;;1.50;;
21901;SDS011;11115;46.038;14.612;2023-04-29T04:32:16;2.97;;;1.87;;
21901;SDS011;11115;46.038;14.612;2023-04-29T04:34:48;3.23;;;1.43;;
21901;SDS011;11115;46.038;14.612;2023-04-29T04:37:21;2.53;;;1.70;;
21901;SDS011;11115;46.038;14.612;2023-04-29T04:39:56;3.93;;;1.90;;
21901;SDS011;11115;46.038;14.612;2023-04-29T04:42:34;2.80;;;1.67;;
21901;SDS011;11115;46.038;14.612;2023-04-29T04:45:17;3.00;;;1.43;;
21901;SDS011;11115;46.038;14.612;2023-04-29T04:50:29;2.60;;;1.57;;
21901;SDS011;11115;46.038;14.612;2023-04-29T04:52:57;4.32;;;1.73;;
21901;SDS011;11115;46.038;14.612;2023-04-29T04:55:43;2.93;;;1.57;;
21901;SDS011;11115;46.038;14.612;2023-04-29T04:58:27;2.27;;;1.50;;
21901;SDS011;11115;46.038;14.612;2023-04-29T05:01:09;3.22;;;1.52;;
21901;SDS011;11115;46.038;14.612;2023-04-29T05:03:40;2.10;;;1.30;;
21901;SDS011;11115;46.038;14.612;2023-04-29T05:08:47;2.67;;;1.23;;
21901;SDS011;11115;46.038;14.612;2023-04-29T05:11:23;1.13;;;1.03;;
21901;SDS011;11115;46.038;14.612;2023-04-29T05:14:05;2.22;;;1.60;;
21901;SDS011;11115;46.038;14.612;2023-04-29T05:16:36;3.10;;;1.70;;
21901;SDS011;11115;46.038;14.612;2023-04-29T05:19:04;2.73;;;1.50;;
21901;SDS011;11115;46.038;14.612;2023-04-29T05:21:38;3.23;;;1.30;;
21901;SDS011;11115;46.038;14.612;2023-04-29T05:24:10;3.63;;;2.13;;
21901;SDS011;11115;46.038;14.612;2023-04-29T05:26:44;4.23;;;1.87;;
21901;SDS011;11115;46.038;14.612;2023-04-29T05:29:45;4.20;;;1.70;;
21901;SDS011;11115;46.038;14.612;2023-04-29T05:32:22;4.63;;;1.70;;
21901;SDS011;11115;46.038;14.612;2023-04-29T05:35:01;4.82;;;2.08;;
21901;SDS011;11115;46.038;14.612;2023-04-29T05:37:34;3.37;;;2.00;;
21901;SDS011;11115;46.038;14.612;2023-04-29T05:40:33;2.37;;;1.53;;
21901;SDS011;11115;46.038;14.612;2023-04-29T05:43:28;4.90;;;2.13;;
21901;SDS011;11115;46.038;14.612;2023-04-29T05:46:05;2.47;;;2.07;;
21901;SDS011;11115;46.038;14.612;2023-04-29T05:48:37;2.00;;;1.70;;
21901;SDS011;11115;46.038;14.612;2023-04-29T05:51:11;3.03;;;2.33;;
21901;SDS011;11115;46.038;14.612;2023-04-29T05:53:42;3.40;;;2.10;;
21901;SDS011;11115;46.038;14.612;2023-04-29T05:56:18;4.27;;;2.07;;
21901;SDS011;11115;46.038;14.612;2023-04-29T05:58:46;4.40;;;2.33;;
21901;SDS011;11115;46.038;14.612;2023-04-29T06:01:32;3.87;;;2.40;;
21901;SDS011;11115;46.038;14.612;2023-04-29T06:04:23;3.13;;;1.80;;
21901;SDS011;11115;46.038;14.612;2023-04-29T06:07:39;6.33;;;2.43;;
21901;SDS011;11115;46.038;14.612;2023-04-29T06:10:31;3.23;;;2.23;;
21901;SDS011;11115;46.038;14.612;2023-04-29T06:12:59;4.10;;;2.30;;
21901;SDS011;11115;46.038;14.612;2023-04-29T06:15:30;5.03;;;2.23;;
21901;SDS011;11115;46.038;14.612;2023-04-29T06:18:05;3.70;;;2.00;;
21901;SDS011;11115;46.038;14.612;2023-04-29T06:20:35;4.67;;;2.40;;
21901;SDS011;11115;46.038;14.612;2023-04-29T06:23:08;2.40;;;1.90;;
21901;SDS011;11115;46.038;14.612;2023-04-29T06:25:41;3.13;;;1.87;;
21901;SDS011;11115;46.038;14.612;2023-04-29T06:28:13;3.23;;;1.93;;
21901;SDS011;11115;46.038;14.612;2023-04-29T06:30:56;4.03;;;1.90;;
21901;SDS011;11115;46.038;14.612;2023-04-29T06:33:27;5.50;;;1.90;;
21901;SDS011;11115;46.038;14.612;2023-04-29T06:36:05;2.93;;;2.10;;
21901;SDS011;11115;46.038;14.612;2023-04-29T06:38:53;7.60;;;1.83;;
21901;SDS011;11115;46.038;14.612;2023-04-29T06:41:44;4.00;;;2.50;;
21901;SDS011;11115;46.038;14.612;2023-04-29T06:44:37;4.00;;;2.13;;
21901;SDS011;11115;46.038;14.612;2023-04-29T06:47:25;3.10;;;2.10;;
21901;SDS011;11115;46.038;14.612;2023-04-29T06:50:05;4.83;;;1.73;;
21901;SDS011;11115;46.038;14.612;2023-04-29T06:55:10;3.77;;;2.20;;
21901;SDS011;11115;46.038;14.612;2023-04-29T06:57:42;5.17;;;2.03;;
21901;SDS011;11115;46.038;14.612;2023-04-29T07:00:12;4.10;;;2.07;;
21901;SDS011;11115;46.038;14.612;2023-04-29T07:02:48;4.90;;;2.33;;
21901;SDS011;11115;46.038;14.612;2023-04-29T07:05:19;3.97;;;2.58;;
21901;SDS011;11115;46.038;14.612;2023-04-29T07:07:52;3.00;;;2.00;;
21901;SDS011;11115;46.038;14.612;2023-04-29T07:10:24;3.40;;;2.10;;
21901;SDS011;11115;46.038;14.612;2023-04-29T07:13:05;3.30;;;1.83;;
21901;SDS011;11115;46.038;14.612;2023-04-29T07:15:36;2.57;;;1.70;;
21901;SDS011;11115;46.038;14.612;2023-04-29T07:18:21;3.77;;;1.90;;
21901;SDS011;11115;46.038;14.612;2023-04-29T07:20:51;5.20;;;2.08;;
21901;SDS011;11115;46.038;14.612;2023-04-29T07:23:23;1.90;;;1.70;;
21901;SDS011;11115;46.038;14.612;2023-04-29T07:25:54;2.67;;;1.70;;
21901;SDS011;11115;46.038;14.612;2023-04-29T07:28:24;6.97;;;1.57;;
21901;SDS011;11115;46.038;14.612;2023-04-29T07:30:55;3.90;;;1.83;;
21901;SDS011;11115;46.038;14.612;2023-04-29T07:33:23;2.67;;;1.50;;
21901;SDS011;11115;46.038;14.612;2023-04-29T07:36:05;2.30;;;1.33;;
21901;SDS011;11115;46.038;14.612;2023-04-29T07:38:43;1.93;;;1.43;;
21901;SDS011;11115;46.038;14.612;2023-04-29T07:41:16;1.83;;;1.43;;
21901;SDS011;11115;46.038;14.612;2023-04-29T07:44:14;2.07;;;1.40;;
21901;SDS011;11115;46.038;14.612;2023-04-29T07:46:46;2.40;;;1.50;;
21901;SDS011;11115;46.038;14.612;2023-04-29T07:49:17;1.95;;;1.40;;
21901;SDS011;11115;46.038;14.612;2023-04-29T07:54:35;6.20;;;1.80;;
21901;SDS011;11115;46.038;14.612;2023-04-29T07:57:10;1.37;;;1.17;;
21901;SDS011;11115;46.038;14.612;2023-04-29T07:59:40;3.60;;;1.55;;
21901;SDS011;11115;46.038;14.612;2023-04-29T08:02:09;2.83;;;1.90;;
21901;SDS011;11115;46.038;14.612;2023-04-29T08:04:51;5.17;;;2.17;;
21901;SDS011;11115;46.038;14.612;2023-04-29T08:07:24;5.23;;;2.43;;
21901;SDS011;11115;46.038;14.612;2023-04-29T08:12:37;3.83;;;1.77;;
21901;SDS011;11115;46.038;14.612;2023-04-29T08:15:09;2.97;;;1.80;;
21901;SDS011;11115;46.038;14.612;2023-04-29T08:17:39;3.55;;;1.67;;
21901;SDS011;11115;46.038;14.612;2023-04-29T08:20:11;3.47;;;1.90;;
21901;SDS011;11115;46.038;14.612;2023-04-29T08:22:45;2.33;;;1.43;;
21901;SDS011;11115;46.038;14.612;2023-04-29T08:25:18;4.30;;;1.73;;
21901;SDS011;11115;46.038;14.612;2023-04-29T08:28:00;3.35;;;1.50;;
21901;SDS011;11115;46.038;14.612;2023-04-29T08:30:31;2.15;;;1.60;;
21901;SDS011;11115;46.038;14.612;2023-04-29T08:33:09;4.20;;;1.70;;
21901;SDS011;11115;46.038;14.612;2023-04-29T08:35:39;2.58;;;2.17;;
21901;SDS011;11115;46.038;14.612;2023-04-29T08:38:13;2.85;;;2.25;;
21901;SDS011;11115;46.038;14.612;2023-04-29T08:40:49;4.70;;;2.30;;
21901;SDS011;11115;46.038;14.612;2023-04-29T08:43:18;5.70;;;2.27;;
21901;SDS011;11115;46.038;14.612;2023-04-29T08:45:51;3.67;;;2.17;;
21901;SDS011;11115;46.038;14.612;2023-04-29T08:48:19;2.10;;;1.73;;
21901;SDS011;11115;46.038;14.612;2023-04-29T08:50:51;2.17;;;1.83;;
21901;SDS011;11115;46.038;14.612;2023-04-29T08:53:21;1.50;;;1.30;;
21901;SDS011;11115;46.038;14.612;2023-04-29T08:55:50;2.73;;;1.83;;
21901;SDS011;11115;46.038;14.612;2023-04-29T08:58:24;3.63;;;1.43;;
21901;SDS011;11115;46.038;14.612;2023-04-29T09:01:00;1.20;;;1.10;;
21901;SDS011;11115;46.038;14.612;2023-04-29T09:06:45;1.53;;;1.30;;
21901;SDS011;11115;46.038;14.612;2023-04-29T09:09:16;0.82;;;0.82;;
21901;SDS011;11115;46.038;14.612;2023-04-29T09:11:48;1.73;;;1.10;;
21901;SDS011;11115;46.038;14.612;2023-04-29T09:14:18;1.57;;;1.40;;
21901;SDS011;11115;46.038;14.612;2023-04-29T09:17:05;1.57;;;0.70;;
21901;SDS011;11115;46.038;14.612;2023-04-29T09:19:37;1.63;;;1.10;;
21901;SDS011;11115;46.038;14.612;2023-04-29T09:22:07;4.15;;;1.33;;
21901;SDS011;11115;46.038;14.612;2023-04-29T09:24:44;2.07;;;1.00;;
21901;SDS011;11115;46.038;14.612;2023-04-29T09:27:25;1.30;;;1.13;;
21901;SDS011;11115;46.038;14.612;2023-04-29T09:30:05;1.93;;;0.97;;
21901;SDS011;11115;46.038;14.612;2023-04-29T09:32:40;1.97;;;1.20;;
21901;SDS011;11115;46.038;14.612;2023-04-29T09:35:25;1.67;;;0.90;;
21901;SDS011;11115;46.038;14.612;2023-04-29T09:38:11;0.93;;;0.80;;
21901;SDS011;11115;46.038;14.612;2023-04-29T09:40:44;1.97;;;0.87;;
21901;SDS011;11115;46.038;14.612;2023-04-29T09:43:25;0.83;;;0.70;;
21901;SDS011;11115;46.038;14.612;2023-04-29T09:46:02;2.30;;;1.07;;
21901;SDS011;11115;46.038;14.612;2023-04-29T09:48:33;0.93;;;0.73;;
21901;SDS011;11115;46.038;14.612;2023-04-29T09:51:12;2.97;;;1.42;;
21901;SDS011;11115;46.038;14.612;2023-04-29T09:53:44;3.83;;;2.07;;
21901;SDS011;11115;46.038;14.612;2023-04-29T09:56:18;1.55;;;1.20;;
21901;SDS011;11115;46.038;14.612;2023-04-29T09:59:07;1.15;;;0.70;;
21901;SDS011;11115;46.038;14.612;2023-04-29T10:01:39;0.80;;;0.80;;
21901;SDS011;11115;46.038;14.612;2023-04-29T10:04:10;0.90;;;0.60;;
21901;SDS011;11115;46.038;14.612;2023-04-29T10:06:51;0.82;;;0.75;;
21901;SDS011;11115;46.038;14.612;2023-04-29T10:09:25;0.65;;;0.60;;
21901;SDS011;11115;46.038;14.612;2023-04-29T10:11:55;1.65;;;0.60;;
21901;SDS011;11115;46.038;14.612;2023-04-29T10:14:23;1.48;;;1.00;;
21901;SDS011;11115;46.038;14.612;2023-04-29T10:17:09;2.70;;;1.48;;
21901;SDS011;11115;46.038;14.612;2023-04-29T10:19:57;3.20;;;1.00;;
21901;SDS011;11115;46.038;14.612;2023-04-29T10:22:44;0.70;;;0.60;;
21901;SDS011;11115;46.038;14.612;2023-04-29T10:25:24;1.15;;;1.05;;
21901;SDS011;11115;46.038;14.612;2023-04-29T10:27:56;0.88;;;0.88;;
21901;SDS011;11115;46.038;14.612;2023-04-29T10:30:33;1.17;;;0.80;;
21901;SDS011;11115;46.038;14.612;2023-04-29T10:33:15;1.92;;;0.50;;
21901;SDS011;11115;46.038;14.612;2023-04-29T10:38:27;1.52;;;0.77;;
21901;SDS011;11115;46.038;14.612;2023-04-29T10:40:58;0.75;;;0.55;;
21901;SDS011;11115;46.038;14.612;2023-04-29T10:43:38;1.65;;;0.85;;
21901;SDS011;11115;46.038;14.612;2023-04-29T10:46:24;1.15;;;1.00;;
21901;SDS011;11115;46.038;14.612;2023-04-29T10:49:01;0.82;;;0.82;;
21901;SDS011;11115;46.038;14.612;2023-04-29T11:02:08;0.75;;;0.68;;
21901;SDS011;11115;46.038;14.612;2023-04-29T11:07:46;0.98;;;0.63;;
21901;SDS011;11115;46.038;14.612;2023-04-29T11:10:19;1.05;;;0.95;;
21901;SDS011;11115;46.038;14.612;2023-04-29T11:12:47;1.60;;;0.93;;
21901;SDS011;11115;46.038;14.612;2023-04-29T11:15:20;1.30;;;0.90;;
21901;SDS011;11115;46.038;14.612;2023-04-29T11:17:57;1.00;;;0.80;;
21901;SDS011;11115;46.038;14.612;2023-04-29T11:23:45;1.33;;;0.98;;
21901;SDS011;11115;46.038;14.612;2023-04-29T11:26:23;0.70;;;0.70;;
21901;SDS011;11115;46.038;14.612;2023-04-29T11:28:52;2.78;;;1.13;;
21901;SDS011;11115;46.038;14.612;2023-04-29T11:31:30;0.75;;;0.75;;
21901;SDS011;11115;46.038;14.612;2023-04-29T11:34:02;1.58;;;1.00;;
21901;SDS011;11115;46.038;14.612;2023-04-29T11:36:34;0.82;;;0.63;;
21901;SDS011;11115;46.038;14.612;2023-04-29T11:39:05;2.33;;;1.13;;
21901;SDS011;11115;46.038;14.612;2023-04-29T11:41:45;1.48;;;0.75;;
21901;SDS011;11115;46.038;14.612;2023-04-29T11:44:21;0.70;;;0.60;;
21901;SDS011;11115;46.038;14.612;2023-04-29T11:47:05;1.40;;;0.80;;
21901;SDS011;11115;46.038;14.612;2023-04-29T11:49:36;0.50;;;0.50;;
21901;SDS011;11115;46.038;14.612;2023-04-29T11:54:37;2.67;;;1.08;;
21901;SDS011;11115;46.038;14.612;2023-04-29T11:57:14;1.77;;;0.75;;
21901;SDS011;11115;46.038;14.612;2023-04-29T11:59:59;2.70;;;1.45;;
21901;SDS011;11115;46.038;14.612;2023-04-29T12:02:37;2.13;;;1.27;;
21901;SDS011;11115;46.038;14.612;2023-04-29T12:05:13;1.98;;;1.10;;
21901;SDS011;11115;46.038;14.612;2023-04-29T12:07:48;1.60;;;1.13;;
21901;SDS011;11115;46.038;14.612;2023-04-29T12:10:21;1.30;;;1.20;;
21901;SDS011;11115;46.038;14.612;2023-04-29T12:12:49;1.83;;;1.33;;
21901;SDS011;11115;46.038;14.612;2023-04-29T12:15:19;1.20;;;0.93;;
21901;SDS011;11115;46.038;14.612;2023-04-29T12:17:51;2.33;;;1.23;;
21901;SDS011;11115;46.038;14.612;2023-04-29T12:20:22;0.88;;;0.70;;
21901;SDS011;11115;46.038;14.612;2023-04-29T12:23:15;0.40;;;0.40;;
21901;SDS011;11115;46.038;14.612;2023-04-29T12:25:55;1.98;;;1.13;;
21901;SDS011;11115;46.038;14.612;2023-04-29T12:28:25;1.33;;;1.00;;
21901;SDS011;11115;46.038;14.612;2023-04-29T12:30:58;0.70;;;0.68;;
21901;SDS011;11115;46.038;14.612;2023-04-29T12:33:30;0.85;;;0.68;;
21901;SDS011;11115;46.038;14.612;2023-04-29T12:36:02;0.90;;;0.63;;
21901;SDS011;11115;46.038;14.612;2023-04-29T12:38:35;2.67;;;0.90;;
21901;SDS011;11115;46.038;14.612;2023-04-29T12:41:13;0.95;;;0.77;;
21901;SDS011;11115;46.038;14.612;2023-04-29T12:43:43;0.52;;;0.52;;
21901;SDS011;11115;46.038;14.612;2023-04-29T12:46:22;1.95;;;0.80;;
21901;SDS011;11115;46.038;14.612;2023-04-29T12:48:55;2.10;;;0.80;;
21901;SDS011;11115;46.038;14.612;2023-04-29T12:51:30;0.30;;;0.30;;
21901;SDS011;11115;46.038;14.612;2023-04-29T12:54:10;1.55;;;0.90;;
21901;SDS011;11115;46.038;14.612;2023-04-29T12:56:47;0.38;;;0.38;;
21901;SDS011;11115;46.038;14.612;2023-04-29T12:59:20;0.50;;;0.50;;
21901;SDS011;11115;46.038;14.612;2023-04-29T13:01:51;0.40;;;0.40;;
21901;SDS011;11115;46.038;14.612;2023-04-29T13:04:20;1.23;;;0.50;;
21901;SDS011;11115;46.038;14.612;2023-04-29T13:06:53;0.32;;;0.32;;
21901;SDS011;11115;46.038;14.612;2023-04-29T13:09:25;1.10;;;0.30;;
21901;SDS011;11115;46.038;14.612;2023-04-29T13:11:53;0.45;;;0.30;;
21901;SDS011;11115;46.038;14.612;2023-04-29T13:14:32;0.65;;;0.50;;
21901;SDS011;11115;46.038;14.612;2023-04-29T13:17:16;0.38;;;0.30;;
21901;SDS011;11115;46.038;14.612;2023-04-29T13:19:45;0.30;;;0.30;;
21901;SDS011;11115;46.038;14.612;2023-04-29T13:22:31;0.30;;;0.30;;
21901;SDS011;11115;46.038;14.612;2023-04-29T13:25:05;1.42;;;0.60;;
21901;SDS011;11115;46.038;14.612;2023-04-29T13:27:36;0.20;;;0.20;;
21901;SDS011;11115;46.038;14.612;2023-04-29T13:30:07;0.40;;;0.40;;
21901;SDS011;11115;46.038;14.612;2023-04-29T13:32:53;0.35;;;0.17;;
21901;SDS011;11115;46.038;14.612;2023-04-29T13:35:37;0.30;;;0.30;;
21901;SDS011;11115;46.038;14.612;2023-04-29T13:38:17;1.35;;;0.75;;
21901;SDS011;11115;46.038;14.612;2023-04-29T13:40:49;0.50;;;0.50;;
21901;SDS011;11115;46.038;14.612;2023-04-29T13:43:23;0.40;;;0.40;;
21901;SDS011;11115;46.038;14.612;2023-04-29T13:46:05;0.73;;;0.43;;
21901;SDS011;11115;46.038;14.612;2023-04-29T13:48:38;0.88;;;0.40;;
21901;SDS011;11115;46.038;14.612;2023-04-29T13:51:36;0.85;;;0.43;;
21901;SDS011;11115;46.038;14.612;2023-04-29T13:54:35;0.65;;;0.57;;
21901;SDS011;11115;46.038;14.612;2023-04-29T13:57:37;1.30;;;0.40;;
21901;SDS011;11115;46.038;14.612;2023-04-29T14:00:12;0.40;;;0.40;;
21901;SDS011;11115;46.038;14.612;2023-04-29T14:03:13;0.38;;;0.38;;
21901;SDS011;11115;46.038;14.612;2023-04-29T14:05:53;0.22;;;0.22;;
21901;SDS011;11115;46.038;14.612;2023-04-29T14:08:27;5.38;;;0.60;;
21901;SDS011;11115;46.038;14.612;2023-04-29T14:10:54;0.47;;;0.25;;
21901;SDS011;11115;46.038;14.612;2023-04-29T14:13:23;0.40;;;0.40;;
21901;SDS011;11115;46.038;14.612;2023-04-29T14:16:02;0.43;;;0.43;;
21901;SDS011;11115;46.038;14.612;2023-04-29T14:18:32;1.95;;;0.50;;
21901;SDS011;11115;46.038;14.612;2023-04-29T14:21:11;0.30;;;0.20;;
21901;SDS011;11115;46.038;14.612;2023-04-29T14:23:45;1.75;;;0.73;;
21901;SDS011;11115;46.038;14.612;2023-04-29T14:26:21;0.60;;;0.38;;
21901;SDS011;11115;46.038;14.612;2023-04-29T14:28:58;0.40;;;0.40;;
21901;SDS011;11115;46.038;14.612;2023-04-29T14:31:37;0.28;;;0.20;;
21901;SDS011;11115;46.038;14.612;2023-04-29T14:34:14;0.85;;;0.50;;
21901;SDS011;11115;46.038;14.612;2023-04-29T14:37:04;0.32;;;0.20;;
21901;SDS011;11115;46.038;14.612;2023-04-29T14:39:34;0.35;;;0.35;;
21901;SDS011;11115;46.038;14.612;2023-04-29T14:42:10;0.63;;;0.50;;
21901;SDS011;11115;46.038;14.612;2023-04-29T14:44:47;0.40;;;0.40;;
21901;SDS011;11115;46.038;14.612;2023-04-29T14:47:26;0.40;;;0.40;;
21901;SDS011;11115;46.038;14.612;2023-04-29T14:50:07;0.30;;;0.30;;
21901;SDS011;11115;46.038;14.612;2023-04-29T14:52:46;1.38;;;0.60;;
21901;SDS011;11115;46.038;14.612;2023-04-29T14:55:31;0.75;;;0.28;;
21901;SDS011;11115;46.038;14.612;2023-04-29T14:58:06;3.13;;;0.63;;
21901;SDS011;11115;46.038;14.612;2023-04-29T15:00:38;0.30;;;0.20;;
21901;SDS011;11115;46.038;14.612;2023-04-29T15:03:08;0.40;;;0.30;;
21901;SDS011;11115;46.038;14.612;2023-04-29T15:05:48;1.40;;;0.40;;
21901;SDS011;11115;46.038;14.612;2023-04-29T15:08:24;2.15;;;1.08;;
21901;SDS011;11115;46.038;14.612;2023-04-29T15:10:53;0.20;;;0.20;;
21901;SDS011;11115;46.038;14.612;2023-04-29T15:13:39;0.85;;;0.60;;
21901;SDS011;11115;46.038;14.612;2023-04-29T15:16:30;0.82;;;0.60;;
21901;SDS011;11115;46.038;14.612;2023-04-29T15:19:04;1.27;;;0.50;;
21901;SDS011;11115;46.038;14.612;2023-04-29T15:21:35;0.30;;;0.30;;
21901;SDS011;11115;46.038;14.612;2023-04-29T15:24:05;0.30;;;0.30;;
21901;SDS011;11115;46.038;14.612;2023-04-29T15:26:45;1.15;;;0.70;;
21901;SDS011;11115;46.038;14.612;2023-04-29T15:29:17;1.08;;;0.77;;
21901;SDS011;11115;46.038;14.612;2023-04-29T15:34:18;1.02;;;0.57;;
21901;SDS011;11115;46.038;14.612;2023-04-29T15:36:49;1.07;;;0.53;;
21901;SDS011;11115;46.038;14.612;2023-04-29T15:39:35;1.08;;;0.70;;
21901;SDS011;11115;46.038;14.612;2023-04-29T15:42:07;1.13;;;0.73;;
21901;SDS011;11115;46.038;14.612;2023-04-29T15:44:53;0.80;;;0.40;;
21901;SDS011;11115;46.038;14.612;2023-04-29T15:47:23;1.45;;;0.68;;
21901;SDS011;11115;46.038;14.612;2023-04-29T15:49:55;0.90;;;0.70;;
21901;SDS011;11115;46.038;14.612;2023-04-29T15:52:41;0.75;;;0.52;;
21901;SDS011;11115;46.038;14.612;2023-04-29T15:55:22;1.65;;;1.23;;
21901;SDS011;11115;46.038;14.612;2023-04-29T15:57:54;0.40;;;0.40;;
21901;SDS011;11115;46.038;14.612;2023-04-29T16:00:24;0.50;;;0.50;;
21901;SDS011;11115;46.038;14.612;2023-04-29T16:02:54;1.48;;;0.70;;
21901;SDS011;11115;46.038;14.612;2023-04-29T16:05:25;0.63;;;0.50;;
21901;SDS011;11115;46.038;14.612;2023-04-29T16:08:10;1.27;;;0.60;;
21901;SDS011;11115;46.038;14.612;2023-04-29T16:10:46;0.75;;;0.75;;
21901;SDS011;11115;46.038;14.612;2023-04-29T16:13:18;0.57;;;0.43;;
21901;SDS011;11115;46.038;14.612;2023-04-29T16:15:46;1.55;;;0.77;;
21901;SDS011;11115;46.038;14.612;2023-04-29T16:18:17;1.70;;;1.30;;
21901;SDS011;11115;46.038;14.612;2023-04-29T16:20:47;1.38;;;0.85;;
21901;SDS011;11115;46.038;14.612;2023-04-29T16:23:21;0.80;;;0.60;;
21901;SDS011;11115;46.038;14.612;2023-04-29T16:25:53;0.77;;;0.65;;
21901;SDS011;11115;46.038;14.612;2023-04-29T16:28:27;1.98;;;0.93;;